createdAt,value
2018-09-07T00:02:21.407Z,0
2018-09-07T00:12:20.336Z,0
2018-09-07T00:22:21.346Z,0
2018-09-07T00:32:20.392Z,0
2018-09-07T00:42:22.428Z,0
2018-09-07T00:52:20.366Z,0
2018-09-07T01:02:20.376Z,0
2018-09-07T01:12:20.350Z,0
2018-09-07T01:22:22.432Z,0
2018-09-07T01:32:20.385Z,0
2018-09-07T01:42:20.435Z,0
2018-09-07T01:52:20.465Z,0
2018-09-07T02:02:20.422Z,0
2018-09-07T02:12:20.458Z,0
2018-09-07T02:22:20.474Z,0
2018-09-07T02:32:20.477Z,0
2018-09-07T02:42:20.477Z,0
2018-09-07T02:52:20.480Z,0
2018-09-07T03:02:20.490Z,0
2018-09-07T03:12:20.468Z,0
2018-09-07T03:22:20.485Z,0
2018-09-07T03:32:20.526Z,0
2018-09-07T03:42:20.556Z,0
2018-09-07T03:52:20.531Z,0
2018-09-07T04:02:20.587Z,0
2018-09-07T04:12:20.544Z,0
2018-09-07T04:22:20.568Z,0
2018-09-07T04:32:20.532Z,12
2018-09-07T04:42:20.635Z,48
2018-09-07T04:52:20.628Z,212
2018-09-07T05:02:20.613Z,540
2018-09-07T05:12:20.589Z,972
2018-09-07T05:22:20.661Z,884
2018-09-07T05:32:20.651Z,1204
2018-09-07T05:42:20.660Z,3144
2018-09-07T05:52:20.686Z,4184
2018-09-07T06:02:20.679Z,4412
2018-09-07T06:12:20.771Z,5396
2018-09-07T06:22:20.705Z,6480
2018-09-07T06:32:20.774Z,3828
2018-09-07T06:42:20.715Z,8088
2018-09-07T06:52:21.890Z,8620
2018-09-07T07:02:20.777Z,6308
2018-09-07T07:12:20.809Z,3104
2018-09-07T07:22:20.718Z,8164
2018-09-07T07:32:20.838Z,3080
2018-09-07T07:42:20.922Z,7120
2018-09-07T07:52:20.814Z,14628
2018-09-07T08:02:20.828Z,9608
2018-09-07T08:12:20.814Z,7424
2018-09-07T08:22:20.815Z,9000
2018-09-07T08:32:20.878Z,10008
2018-09-07T08:42:20.890Z,7424
2018-09-07T08:52:20.907Z,12780
2018-09-07T09:02:20.870Z,9796
2018-09-07T09:12:20.941Z,8912
2018-09-07T09:22:21.156Z,7932
2018-09-07T09:32:20.877Z,3592
2018-09-07T09:42:20.881Z,4956
2018-09-07T09:52:20.885Z,6152
2018-09-07T10:02:20.910Z,5404
2018-09-07T10:12:20.862Z,6888
2018-09-07T10:22:20.920Z,13180
2018-09-07T10:32:20.893Z,10724
2018-09-07T10:42:21.019Z,7608
2018-09-07T10:52:21.313Z,7460
2018-09-07T11:02:21.045Z,8288
2018-09-07T11:12:20.880Z,6880
2018-09-07T11:22:20.897Z,6664
2018-09-07T11:32:22.069Z,12624
2018-09-07T11:42:20.969Z,9356
2018-09-07T11:52:20.892Z,8276
2018-09-07T12:02:20.973Z,9608
2018-09-07T12:12:20.998Z,8512
2018-09-07T12:22:21.085Z,11944
2018-09-07T12:32:20.913Z,5368
2018-09-07T12:42:21.153Z,3596
2018-09-07T12:52:20.940Z,4132
2018-09-07T13:02:20.937Z,3708
2018-09-07T13:12:21.155Z,4816
2018-09-07T13:22:20.945Z,5848
2018-09-07T13:32:20.959Z,6840
2018-09-07T13:42:21.016Z,6608
2018-09-07T13:52:20.962Z,9712
2018-09-07T14:02:20.922Z,7064
2018-09-07T14:12:20.892Z,3988
2018-09-07T14:22:20.898Z,4056
2018-09-07T14:32:21.616Z,5060
2018-09-07T14:42:20.968Z,6488
2018-09-07T14:52:20.954Z,3172
2018-09-07T15:02:21.025Z,3316
2018-09-07T15:12:20.931Z,3092
2018-09-07T15:22:20.932Z,3152
2018-09-07T15:32:21.001Z,3068
2018-09-07T15:42:20.962Z,3236
2018-09-07T15:52:21.142Z,2912
2018-09-07T16:02:20.948Z,2300
2018-09-07T16:12:20.914Z,2768
2018-09-07T16:22:20.934Z,2724
2018-09-07T16:32:21.002Z,2412
2018-09-07T16:42:21.248Z,2184
2018-09-07T16:52:20.921Z,2024
2018-09-07T17:02:21.243Z,1824
2018-09-07T17:12:20.985Z,1628
2018-09-07T17:22:20.925Z,1364
2018-09-07T17:32:20.984Z,1084
2018-09-07T17:42:21.042Z,792
2018-09-07T17:52:21.088Z,476
2018-09-07T18:02:20.888Z,224
2018-09-07T18:12:20.883Z,72
2018-09-07T18:22:21.154Z,20
2018-09-07T18:32:20.994Z,0
2018-09-07T18:42:21.966Z,0
2018-09-07T18:52:21.045Z,0
2018-09-07T19:02:21.123Z,0
2018-09-07T19:12:20.932Z,0
2018-09-07T19:22:21.222Z,0
2018-09-07T19:32:20.944Z,0
2018-09-07T19:42:21.024Z,0
2018-09-07T19:52:20.968Z,0
2018-09-07T20:02:20.933Z,0
2018-09-07T20:12:21.060Z,0
2018-09-07T20:22:20.932Z,0
2018-09-07T20:32:21.247Z,0
2018-09-07T20:42:21.013Z,0
2018-09-07T20:52:21.091Z,0
2018-09-07T21:02:20.984Z,0
2018-09-07T21:12:21.121Z,0
2018-09-07T21:22:21.029Z,0
2018-09-07T21:32:21.111Z,0
2018-09-07T21:42:20.981Z,0
2018-09-07T21:52:21.938Z,0
2018-09-07T22:02:21.441Z,0
2018-09-07T22:12:21.078Z,0
2018-09-07T22:22:21.064Z,0
2018-09-07T22:32:21.055Z,0
2018-09-07T22:42:21.095Z,0
2018-09-07T22:53:47.716Z,0
2018-09-07T23:03:47.759Z,0
2018-09-07T23:13:47.693Z,0
2018-09-07T23:23:48.491Z,0
2018-09-07T23:33:47.714Z,0
2018-09-07T23:43:47.717Z,0
2018-09-07T23:53:47.744Z,0
